createdAt,value
2023-02-15T00:01:58.845Z,83.11
2023-02-15T00:04:47.195Z,83.14
2023-02-15T00:07:19.547Z,83.14
2023-02-15T00:09:48.969Z,82.79
2023-02-15T00:12:19.517Z,82.63
2023-02-15T00:14:48.316Z,82.69
2023-02-15T00:17:17.585Z,82.27
2023-02-15T00:19:46.424Z,82.23
2023-02-15T00:22:15.510Z,82.56
2023-02-15T00:24:44.276Z,82.46
2023-02-15T00:27:13.404Z,82.52
2023-02-15T00:29:43.593Z,82.46
2023-02-15T00:32:12.641Z,82.67
2023-02-15T00:34:42.947Z,82.95
2023-02-15T00:37:12.153Z,82.42
2023-02-15T00:39:40.971Z,82.52
2023-02-15T00:42:10.094Z,82.44
2023-02-15T00:44:38.922Z,82.62
2023-02-15T00:47:09.397Z,82.68
2023-02-15T00:49:38.236Z,82.75
2023-02-15T00:52:07.376Z,82.47
2023-02-15T00:54:36.675Z,82.26
2023-02-15T00:57:06.274Z,81.86
2023-02-15T00:59:35.090Z,82.03
2023-02-15T01:02:04.283Z,82.11
2023-02-15T01:04:34.454Z,81.93
2023-02-15T01:07:04.641Z,81.69
2023-02-15T01:09:35.582Z,81.84
2023-02-15T01:12:05.943Z,81.64
2023-02-15T01:14:34.731Z,81.55
2023-02-15T01:17:04.168Z,81.63
2023-02-15T01:19:38.313Z,81.60
2023-02-15T01:22:09.204Z,81.92
2023-02-15T01:24:38.332Z,81.81
2023-02-15T01:27:07.468Z,82.25
2023-02-15T01:29:36.326Z,81.87
2023-02-15T01:32:05.938Z,82.15
2023-02-15T01:34:35.005Z,81.96
2023-02-15T01:37:05.507Z,81.91
2023-02-15T01:39:34.289Z,82.09
2023-02-15T01:42:03.437Z,81.77
2023-02-15T01:44:53.537Z,81.45
2023-02-15T01:47:31.884Z,81.69
2023-02-15T01:50:10.709Z,82.06
2023-02-15T01:52:51.269Z,82.52
2023-02-15T01:55:22.836Z,82.47
2023-02-15T01:57:53.743Z,82.23
2023-02-15T02:00:23.671Z,81.95
2023-02-15T02:02:59.013Z,82.11
2023-02-15T02:05:28.513Z,82.22
2023-02-15T02:08:03.684Z,82.12
2023-02-15T02:10:33.660Z,81.96
2023-02-15T02:13:08.158Z,82.00
2023-02-15T02:15:50.155Z,82.63
2023-02-15T02:18:43.719Z,82.31
2023-02-15T02:21:43.245Z,82.18
2023-02-15T02:24:48.740Z,81.75
2023-02-15T02:27:32.906Z,81.70
2023-02-15T02:30:47.356Z,81.59
2023-02-15T02:33:41.776Z,81.46
2023-02-15T02:36:30.099Z,81.62
2023-02-15T02:39:17.610Z,81.84
2023-02-15T02:42:02.462Z,81.79
2023-02-15T02:44:43.917Z,81.74
2023-02-15T02:47:22.383Z,81.89
2023-02-15T02:50:00.958Z,82.15
2023-02-15T02:52:43.230Z,82.35
2023-02-15T02:55:20.086Z,82.52
2023-02-15T02:57:57.842Z,82.22
2023-02-15T03:00:31.710Z,82.27
2023-02-15T03:03:08.437Z,82.13
2023-02-15T03:05:46.562Z,82.06
2023-02-15T03:08:22.936Z,81.89
2023-02-15T03:10:57.906Z,81.80
2023-02-15T03:13:28.359Z,81.89
2023-02-15T03:16:16.977Z,81.91
2023-02-15T03:18:53.813Z,81.98
2023-02-15T03:21:34.546Z,82.23
2023-02-15T03:24:11.619Z,82.24
2023-02-15T03:26:45.283Z,82.64
2023-02-15T03:29:19.345Z,82.40
2023-02-15T03:31:56.011Z,82.07
2023-02-15T03:34:25.742Z,82.21
2023-02-15T03:37:08.094Z,82.48
2023-02-15T03:39:48.220Z,82.96
2023-02-15T03:42:24.820Z,82.32
2023-02-15T03:45:01.642Z,82.51
2023-02-15T03:47:36.518Z,81.97
2023-02-15T03:50:31.653Z,82.11
2023-02-15T03:53:05.977Z,82.23
2023-02-15T03:55:37.037Z,82.07
2023-02-15T03:58:25.859Z,81.76
2023-02-15T04:01:19.087Z,81.74
2023-02-15T04:03:56.563Z,81.96
2023-02-15T04:06:25.637Z,81.85
2023-02-15T04:09:13.006Z,82.35
2023-02-15T04:11:42.063Z,81.95
2023-02-15T04:14:24.710Z,81.89
2023-02-15T04:16:53.871Z,81.66
2023-02-15T04:19:40.085Z,81.44
2023-02-15T04:22:26.623Z,81.23
2023-02-15T04:25:11.645Z,81.81
2023-02-15T04:27:42.298Z,80.90
2023-02-15T04:30:14.419Z,80.83
2023-02-15T04:32:44.085Z,81.15
2023-02-15T04:35:13.359Z,81.46
2023-02-15T04:37:44.298Z,81.64
2023-02-15T04:40:19.367Z,81.34
2023-02-15T04:42:50.950Z,81.41
2023-02-15T04:45:20.279Z,81.37
2023-02-15T04:47:49.304Z,81.07
2023-02-15T04:50:18.493Z,80.80
2023-02-15T04:52:47.624Z,80.63
2023-02-15T04:55:17.955Z,80.47
2023-02-15T04:57:48.158Z,80.56
2023-02-15T05:00:17.780Z,80.57
2023-02-15T05:02:46.847Z,80.31
2023-02-15T05:05:16.350Z,80.56
2023-02-15T05:07:45.425Z,80.86
2023-02-15T05:10:14.198Z,81.05
2023-02-15T05:12:44.657Z,81.32
2023-02-15T05:15:13.484Z,81.03
2023-02-15T05:17:42.702Z,81.22
2023-02-15T05:20:12.536Z,81.09
2023-02-15T05:22:42.403Z,81.08
2023-02-15T05:25:28.941Z,80.70
2023-02-15T05:28:16.798Z,81.25
2023-02-15T05:30:45.689Z,81.69
2023-02-15T05:33:14.894Z,81.77
2023-02-15T05:35:43.771Z,81.85
2023-02-15T05:38:12.825Z,81.93
2023-02-15T05:40:41.634Z,81.98
2023-02-15T05:43:12.076Z,82.09
2023-02-15T05:45:40.949Z,81.80
2023-02-15T05:48:10.044Z,81.95
2023-02-15T05:50:38.853Z,81.68
2023-02-15T05:53:07.924Z,82.14
2023-02-15T05:55:39.160Z,81.95
2023-02-15T05:58:08.882Z,81.56
2023-02-15T06:00:39.049Z,81.52
2023-02-15T06:03:08.184Z,81.57
2023-02-15T06:05:37.002Z,82.03
2023-02-15T06:08:06.278Z,82.60
2023-02-15T06:10:35.086Z,82.09
2023-02-15T06:13:04.164Z,82.28
2023-02-15T06:15:33.022Z,82.54
2023-02-15T06:18:03.447Z,83.15
2023-02-15T06:20:32.235Z,82.68
2023-02-15T06:23:01.279Z,82.56
2023-02-15T06:25:30.064Z,82.38
2023-02-15T06:27:59.133Z,82.38
2023-02-15T06:30:28.075Z,82.50
2023-02-15T06:32:57.268Z,82.42
2023-02-15T06:35:27.507Z,82.17
2023-02-15T06:37:56.739Z,82.56
2023-02-15T06:40:25.512Z,81.91
2023-02-15T06:42:54.803Z,82.03
2023-02-15T06:45:23.656Z,82.81
2023-02-15T06:47:52.839Z,83.26
2023-02-15T06:50:21.900Z,83.84
2023-02-15T06:52:57.893Z,84.01
2023-02-15T06:55:27.114Z,83.87
2023-02-15T06:57:56.608Z,83.57
2023-02-15T07:00:25.708Z,83.53
2023-02-15T07:02:58.660Z,83.36
2023-02-15T07:05:31.841Z,83.19
2023-02-15T07:08:03.066Z,82.95
2023-02-15T07:10:31.985Z,83.19
2023-02-15T07:13:00.129Z,83.15
2023-02-15T07:15:28.983Z,83.18
2023-02-15T07:18:00.169Z,82.91
2023-02-15T07:20:29.674Z,83.09
2023-02-15T07:22:58.780Z,83.17
2023-02-15T07:25:28.990Z,82.83
2023-02-15T07:27:59.555Z,82.63
2023-02-15T07:30:28.982Z,82.80
2023-02-15T07:33:16.332Z,83.27
2023-02-15T07:35:50.133Z,83.15
2023-02-15T07:38:20.068Z,82.90
2023-02-15T07:40:50.270Z,82.22
2023-02-15T07:43:19.537Z,82.66
2023-02-15T07:45:48.362Z,82.96
2023-02-15T07:48:17.420Z,82.58
2023-02-15T07:50:46.219Z,82.50
2023-02-15T07:53:15.413Z,82.65
2023-02-15T07:55:44.309Z,82.09
2023-02-15T07:58:14.756Z,82.05
2023-02-15T08:03:38.030Z,81.63
2023-02-15T08:06:07.966Z,81.98
2023-02-15T08:08:37.134Z,82.25
2023-02-15T08:11:30.229Z,82.21
2023-02-15T08:14:03.434Z,81.71
2023-02-15T08:16:36.197Z,81.35
2023-02-15T08:19:08.951Z,80.59
2023-02-15T08:21:41.352Z,81.40
2023-02-15T08:24:13.131Z,81.71
2023-02-15T08:26:43.851Z,81.33
2023-02-15T08:29:13.092Z,81.54
2023-02-15T08:31:42.798Z,82.13
2023-02-15T08:34:17.035Z,83.04
2023-02-15T08:36:47.286Z,82.98
2023-02-15T08:39:17.713Z,82.94
2023-02-15T08:41:48.982Z,82.70
2023-02-15T08:44:20.106Z,82.94
2023-02-15T08:46:51.658Z,82.92
2023-02-15T08:49:23.735Z,82.17
2023-02-15T08:51:52.856Z,81.45
2023-02-15T08:54:23.611Z,81.78
2023-02-15T08:56:52.721Z,82.13
2023-02-15T08:59:24.291Z,81.92
2023-02-15T09:01:54.856Z,82.33
2023-02-15T09:04:25.107Z,82.23
2023-02-15T09:06:54.724Z,82.38
2023-02-15T09:09:24.082Z,81.99
2023-02-15T09:11:58.751Z,82.26
2023-02-15T09:14:29.207Z,81.88
2023-02-15T09:16:58.798Z,82.42
2023-02-15T09:19:29.424Z,82.47
2023-02-15T09:21:59.549Z,82.74
2023-02-15T09:24:28.476Z,82.45
2023-02-15T09:26:57.808Z,82.68
2023-02-15T09:29:26.618Z,83.32
2023-02-15T09:31:55.847Z,84.45
2023-02-15T09:34:25.570Z,84.71
2023-02-15T09:36:56.140Z,84.15
2023-02-15T09:39:27.689Z,83.82
2023-02-15T09:42:46.065Z,83.33
2023-02-15T09:45:30.770Z,83.68
2023-02-15T09:48:28.619Z,83.38
2023-02-15T09:51:20.149Z,82.36
2023-02-15T09:54:23.731Z,83.19
2023-02-15T09:57:00.419Z,84.55
2023-02-15T09:59:43.859Z,84.26
2023-02-15T10:02:32.897Z,83.67
2023-02-15T10:05:23.807Z,83.49
2023-02-15T10:08:22.223Z,84.29
2023-02-15T10:11:24.730Z,83.62
2023-02-15T10:14:13.715Z,83.04
2023-02-15T10:16:58.380Z,82.34
2023-02-15T10:19:45.382Z,81.63
2023-02-15T10:22:32.210Z,81.63
2023-02-15T10:25:22.088Z,81.79
2023-02-15T10:27:52.954Z,82.36
2023-02-15T10:30:34.933Z,82.76
2023-02-15T10:33:12.176Z,83.59
2023-02-15T10:35:54.669Z,83.98
2023-02-15T10:38:38.455Z,82.90
2023-02-15T10:41:26.197Z,83.27
2023-02-15T10:44:23.803Z,83.87
2023-02-15T10:47:18.548Z,83.33
2023-02-15T10:50:19.158Z,82.36
2023-02-15T10:53:12.090Z,82.77
2023-02-15T10:55:57.728Z,83.59
2023-02-15T10:58:49.407Z,84.25
2023-02-15T11:01:29.486Z,84.51
2023-02-15T11:04:40.683Z,84.35
2023-02-15T11:07:20.479Z,84.18
2023-02-15T11:09:56.821Z,83.48
2023-02-15T11:12:31.247Z,83.33
2023-02-15T11:15:07.113Z,83.17
2023-02-15T11:17:44.395Z,83.19
2023-02-15T11:20:26.188Z,83.81
2023-02-15T11:22:57.956Z,84.41
2023-02-15T11:25:32.229Z,85.19
2023-02-15T11:28:05.857Z,85.42
2023-02-15T11:30:45.888Z,86.00
2023-02-15T11:33:25.911Z,85.15
2023-02-15T11:36:02.822Z,84.80
2023-02-15T11:38:35.552Z,84.13
2023-02-15T11:41:11.859Z,84.18
2023-02-15T11:43:49.418Z,83.65
2023-02-15T11:46:19.874Z,83.80
2023-02-15T11:48:51.157Z,83.35
2023-02-15T11:51:24.449Z,83.50
2023-02-15T11:53:54.743Z,84.44
2023-02-15T11:56:26.965Z,83.94
2023-02-15T11:59:03.895Z,84.62
2023-02-15T12:01:37.524Z,84.76
2023-02-15T12:04:20.755Z,84.75
2023-02-15T12:07:02.311Z,84.12
2023-02-15T12:09:39.363Z,84.23
2023-02-15T12:12:26.531Z,83.99
2023-02-15T12:14:57.746Z,83.80
2023-02-15T12:17:30.612Z,84.35
2023-02-15T12:20:05.655Z,84.63
2023-02-15T12:22:38.355Z,84.65
2023-02-15T12:25:26.732Z,86.54
2023-02-15T12:27:55.802Z,85.92
2023-02-15T12:30:35.153Z,85.67
2023-02-15T12:33:19.226Z,84.74
2023-02-15T12:35:57.124Z,83.47
2023-02-15T12:38:29.452Z,82.48
2023-02-15T12:41:04.532Z,82.55
2023-02-15T12:43:37.627Z,81.91
2023-02-15T12:46:23.624Z,81.80
2023-02-15T12:49:09.971Z,81.94
2023-02-15T12:51:49.525Z,82.65
2023-02-15T12:54:37.048Z,83.09
2023-02-15T12:57:25.561Z,82.41
2023-02-15T12:59:57.960Z,82.72
2023-02-15T13:02:33.535Z,83.32
2023-02-15T13:05:19.605Z,83.81
2023-02-15T13:07:55.748Z,83.09
2023-02-15T13:10:29.497Z,83.39
2023-02-15T13:13:00.059Z,83.65
2023-02-15T13:15:37.567Z,83.69
2023-02-15T13:18:16.446Z,84.13
2023-02-15T13:20:47.171Z,83.86
2023-02-15T13:23:32.096Z,84.31
2023-02-15T13:26:07.172Z,83.71
2023-02-15T13:28:44.599Z,84.18
2023-02-15T13:31:17.531Z,84.22
2023-02-15T13:33:53.600Z,83.88
2023-02-15T13:36:33.912Z,84.08
2023-02-15T13:39:22.886Z,83.77
2023-02-15T13:42:03.572Z,83.75
2023-02-15T13:45:11.382Z,83.13
2023-02-15T13:47:53.016Z,83.13
2023-02-15T13:51:05.576Z,82.70
2023-02-15T13:54:14.027Z,83.14
2023-02-15T13:57:03.210Z,83.11
2023-02-15T13:59:57.256Z,83.64
2023-02-15T14:03:00.606Z,83.96
2023-02-15T14:05:51.740Z,84.08
2023-02-15T14:08:39.344Z,84.22
2023-02-15T14:11:21.152Z,84.26
2023-02-15T14:14:30.398Z,84.14
2023-02-15T14:17:12.861Z,85.11
2023-02-15T14:19:51.052Z,84.77
2023-02-15T14:22:32.920Z,84.33
2023-02-15T14:25:20.909Z,84.23
2023-02-15T14:28:01.322Z,84.13
2023-02-15T14:30:36.983Z,84.01
2023-02-15T14:33:10.629Z,83.62
2023-02-15T14:35:43.248Z,83.40
2023-02-15T14:38:38.257Z,83.65
2023-02-15T14:41:15.884Z,83.68
2023-02-15T14:43:56.970Z,84.39
2023-02-15T14:46:38.754Z,84.79
2023-02-15T14:49:13.712Z,84.76
2023-02-15T14:52:08.143Z,84.18
2023-02-15T14:54:59.357Z,83.92
2023-02-15T14:57:37.393Z,84.05
2023-02-15T15:00:42.418Z,83.76
2023-02-15T15:03:26.125Z,83.66
2023-02-15T15:06:07.242Z,84.22
2023-02-15T15:08:42.193Z,83.94
2023-02-15T15:11:44.299Z,84.47
2023-02-15T15:14:43.004Z,83.35
2023-02-15T15:17:56.166Z,83.34
2023-02-15T15:20:52.031Z,84.16
2023-02-15T15:23:47.953Z,83.94
2023-02-15T15:26:34.346Z,83.49
2023-02-15T15:29:04.832Z,83.18
2023-02-15T15:31:54.739Z,82.66
2023-02-15T15:35:16.360Z,82.41
2023-02-15T15:38:30.312Z,83.81
2023-02-15T15:41:21.215Z,84.10
2023-02-15T15:44:31.067Z,84.38
2023-02-15T15:47:32.113Z,83.80
2023-02-15T15:50:02.111Z,84.56
2023-02-15T15:52:36.445Z,84.29
2023-02-15T15:55:18.929Z,84.06
2023-02-15T15:57:53.569Z,84.61
2023-02-15T16:00:38.468Z,84.24
2023-02-15T16:03:08.058Z,84.46
2023-02-15T16:05:39.837Z,84.51
2023-02-15T16:08:09.147Z,84.95
2023-02-15T16:10:39.981Z,84.65
2023-02-15T16:13:09.719Z,84.36
2023-02-15T16:15:50.539Z,84.79
2023-02-15T16:18:23.723Z,84.49
2023-02-15T16:20:57.630Z,83.88
2023-02-15T16:24:05.311Z,83.14
2023-02-15T16:27:11.482Z,83.11
2023-02-15T16:29:40.793Z,83.73
2023-02-15T16:32:21.329Z,83.30
2023-02-15T16:34:59.068Z,82.71
2023-02-15T16:37:33.402Z,82.51
2023-02-15T16:40:02.754Z,82.92
2023-02-15T16:42:33.478Z,82.93
2023-02-15T16:45:11.138Z,83.65
2023-02-15T16:47:45.931Z,83.81
2023-02-15T16:50:22.912Z,83.78
2023-02-15T16:52:54.500Z,84.21
2023-02-15T16:55:26.405Z,84.66
2023-02-15T16:58:05.148Z,84.64
2023-02-15T17:00:38.918Z,84.77
2023-02-15T17:03:24.183Z,85.00
2023-02-15T17:05:56.362Z,85.47
2023-02-15T17:08:33.388Z,85.05
2023-02-15T17:11:19.962Z,84.59
2023-02-15T17:14:16.516Z,84.47
2023-02-15T17:16:50.518Z,84.46
2023-02-15T17:19:25.547Z,84.84
2023-02-15T17:21:59.233Z,85.40
2023-02-15T17:24:39.303Z,85.14
2023-02-15T17:27:16.831Z,85.22
2023-02-15T17:29:52.899Z,85.83
2023-02-15T17:32:26.034Z,86.01
2023-02-15T17:35:21.395Z,85.83
2023-02-15T17:37:51.079Z,85.74
2023-02-15T17:40:27.660Z,85.73
2023-02-15T17:42:57.158Z,85.33
2023-02-15T17:45:35.293Z,85.45
2023-02-15T17:48:07.614Z,85.65
2023-02-15T17:50:37.947Z,85.03
2023-02-15T17:53:10.907Z,85.00
2023-02-15T17:55:39.310Z,85.04
2023-02-15T17:58:11.533Z,85.22
2023-02-15T18:01:03.438Z,85.13
2023-02-15T18:04:00.605Z,85.15
2023-02-15T18:06:47.358Z,85.57
2023-02-15T18:09:36.597Z,86.10
2023-02-15T18:12:20.836Z,86.19
2023-02-15T18:14:50.161Z,85.32
2023-02-15T18:17:23.536Z,85.20
2023-02-15T18:19:54.211Z,85.49
2023-02-15T18:22:23.625Z,85.66
2023-02-15T18:24:52.451Z,85.47
2023-02-15T18:27:22.583Z,85.28
2023-02-15T18:29:51.526Z,85.65
2023-02-15T18:32:32.729Z,85.14
2023-02-15T18:35:04.583Z,85.50
2023-02-15T18:37:35.825Z,86.03
2023-02-15T18:40:05.140Z,86.14
2023-02-15T18:42:36.593Z,85.81
2023-02-15T18:45:16.876Z,85.88
2023-02-15T18:47:49.476Z,86.28
2023-02-15T18:50:21.463Z,85.66
2023-02-15T18:52:52.392Z,85.26
2023-02-15T18:55:24.836Z,85.58
2023-02-15T18:57:57.640Z,85.63
2023-02-15T19:00:30.341Z,85.27
2023-02-15T19:03:02.796Z,84.58
2023-02-15T19:05:34.127Z,84.40
2023-02-15T19:08:04.575Z,84.12
2023-02-15T19:10:34.787Z,84.10
2023-02-15T19:13:03.975Z,84.18
2023-02-15T19:15:33.047Z,83.77
2023-02-15T19:18:03.545Z,83.77
2023-02-15T19:20:37.406Z,84.79
2023-02-15T19:23:13.267Z,86.10
2023-02-15T19:25:43.600Z,85.70
2023-02-15T19:28:19.344Z,85.16
2023-02-15T19:30:48.651Z,85.02
2023-02-15T19:33:23.852Z,85.00
2023-02-15T19:35:57.476Z,84.83
2023-02-15T19:38:33.109Z,84.54
2023-02-15T19:41:07.721Z,84.22
2023-02-15T19:43:37.381Z,84.15
2023-02-15T19:46:06.709Z,84.07
2023-02-15T19:48:37.325Z,82.99
2023-02-15T19:51:06.394Z,82.55
2023-02-15T19:53:35.482Z,82.66
2023-02-15T19:56:04.660Z,82.43
2023-02-15T19:58:34.732Z,82.25
2023-02-15T20:01:03.895Z,82.13
2023-02-15T20:03:33.143Z,82.10
2023-02-15T20:06:03.889Z,82.17
2023-02-15T20:08:33.863Z,81.94
2023-02-15T20:11:03.059Z,81.45
2023-02-15T20:13:32.253Z,81.02
2023-02-15T20:16:04.971Z,81.02
2023-02-15T20:18:34.076Z,80.98
2023-02-15T20:21:05.654Z,80.83
2023-02-15T20:23:37.363Z,81.06
2023-02-15T20:26:18.398Z,80.98
2023-02-15T20:28:48.676Z,81.06
2023-02-15T20:31:20.500Z,80.64
2023-02-15T20:33:49.748Z,80.77
2023-02-15T20:36:22.916Z,80.29
2023-02-15T20:38:52.551Z,80.24
2023-02-15T20:41:39.914Z,79.75
2023-02-15T20:44:24.421Z,79.81
2023-02-15T20:46:56.193Z,80.08
2023-02-15T20:49:27.121Z,80.13
2023-02-15T20:51:58.796Z,79.63
2023-02-15T20:54:31.937Z,80.24
2023-02-15T20:57:00.769Z,80.30
2023-02-15T20:59:32.868Z,80.59
2023-02-15T21:02:15.595Z,80.63
2023-02-15T21:04:44.833Z,80.21
2023-02-15T21:07:18.808Z,80.69
2023-02-15T21:09:48.662Z,80.61
2023-02-15T21:12:21.188Z,80.76
2023-02-15T21:14:50.279Z,80.96
2023-02-15T21:17:20.782Z,80.93
2023-02-15T21:19:50.053Z,80.55
2023-02-15T21:22:21.558Z,80.65
2023-02-15T21:24:54.783Z,81.07
2023-02-15T21:27:23.702Z,80.92
2023-02-15T21:29:53.068Z,80.89
2023-02-15T21:32:22.024Z,80.81
2023-02-15T21:34:51.145Z,81.17
2023-02-15T21:37:36.668Z,81.08
2023-02-15T21:40:07.217Z,81.07
2023-02-15T21:42:53.520Z,81.09
2023-02-15T21:45:39.794Z,81.06
2023-02-15T21:48:08.701Z,81.32
2023-02-15T21:50:56.652Z,81.12
2023-02-15T21:53:31.813Z,82.48
2023-02-15T21:56:04.850Z,82.30
2023-02-15T21:58:37.423Z,82.78
2023-02-15T22:01:07.982Z,82.81
2023-02-15T22:03:39.608Z,83.04
2023-02-15T22:06:14.537Z,83.00
2023-02-15T22:08:45.689Z,82.98
2023-02-15T22:11:18.924Z,82.77
2023-02-15T22:13:49.199Z,82.57
2023-02-15T22:16:23.043Z,82.58
2023-02-15T22:18:52.260Z,82.75
2023-02-15T22:21:21.550Z,83.03
2023-02-15T22:23:51.722Z,83.41
2023-02-15T22:26:25.811Z,84.02
2023-02-15T22:28:54.798Z,84.21
2023-02-15T22:31:24.517Z,84.33
2023-02-15T22:33:55.030Z,84.55
2023-02-15T22:36:27.467Z,85.04
2023-02-15T22:38:59.664Z,85.02
2023-02-15T22:41:32.496Z,85.44
2023-02-15T22:44:01.495Z,85.49
2023-02-15T22:46:30.791Z,85.49
2023-02-15T22:48:59.577Z,85.75
2023-02-15T22:51:28.709Z,85.44
2023-02-15T22:53:58.915Z,85.80
2023-02-15T22:56:36.199Z,85.46
2023-02-15T22:59:09.707Z,85.29
2023-02-15T23:01:39.924Z,85.75
2023-02-15T23:04:11.126Z,85.45
2023-02-15T23:06:40.201Z,85.71
2023-02-15T23:09:10.376Z,85.17
2023-02-15T23:11:39.627Z,85.47
2023-02-15T23:14:24.391Z,85.42
2023-02-15T23:16:53.534Z,84.90
2023-02-15T23:19:22.767Z,85.31
2023-02-15T23:21:52.038Z,85.01
2023-02-15T23:24:25.465Z,85.43
2023-02-15T23:26:55.017Z,85.25
2023-02-15T23:29:25.275Z,85.21
2023-02-15T23:31:55.431Z,85.13
2023-02-15T23:34:29.157Z,85.35
2023-02-15T23:36:58.797Z,85.03
2023-02-15T23:39:47.501Z,85.32
2023-02-15T23:42:21.515Z,85.75
2023-02-15T23:44:50.646Z,85.54
2023-02-15T23:47:44.140Z,85.19
2023-02-15T23:50:19.684Z,85.08
2023-02-15T23:52:49.246Z,85.07
2023-02-15T23:55:20.517Z,85.22
2023-02-15T23:57:50.743Z,84.98
